Time;durP1;ratioP1;P1;durP2;ratioP2;P2;SDS_P1;SDS_P2;PMS_P1;PMS_P2;Temp;Humidity;BMP_temperature;BMP_pressure;BME280_temperature;BME280_humidity;BME280_pressure;Samples;Min_cycle;Max_cycle;Signal;HPM_P1;HPM_P2
2023/03/30 00:02:22;;;;;;;3.03;2.30;;;;;;;3.13;43.65;94351.53;5003670;28;20372;-75
2023/03/30 00:04:51;;;;;;;2.60;2.30;;;;;;;3.06;43.69;94316.78;5005576;28;20030;-76
2023/03/30 00:07:17;;;;;;;2.47;2.13;;;;;;;3.12;43.37;94323.66;5004633;28;20134;-77
2023/03/30 00:09:42;;;;;;;4.60;2.25;;;;;;;3.21;43.07;94340.53;5005955;28;20526;-75
2023/03/30 00:12:12;;;;;;;2.97;2.30;;;;;;;3.06;42.98;94306.25;5001336;28;20198;-76
2023/03/30 00:14:40;;;;;;;5.05;2.38;;;;;;;3.12;42.94;94322.84;5006964;28;20340;-76
2023/03/30 00:17:07;;;;;;;4.18;2.03;;;;;;;3.22;42.92;94321.09;5003676;28;20156;-76
2023/03/30 00:19:36;;;;;;;3.17;2.30;;;;;;;3.09;43.07;94326.78;5004845;28;20472;-76
2023/03/30 00:22:06;;;;;;;3.70;2.70;;;;;;;3.23;43.18;94322.66;5007954;28;20141;-76
2023/03/30 00:24:32;;;;;;;5.70;2.88;;;;;;;3.16;43.26;94321.28;5003832;28;20503;-76
2023/03/30 00:26:57;;;;;;;5.75;3.05;;;;;;;2.85;43.19;94279.06;5005350;28;20044;-75
2023/03/30 00:29:22;;;;;;;3.03;2.40;;;;;;;2.92;43.76;94305.91;5004501;28;20033;-76
2023/03/30 00:31:48;;;;;;;3.90;2.47;;;;;;;3.14;43.72;94332.06;5004003;28;20036;-76
2023/03/30 00:34:13;;;;;;;4.50;2.38;;;;;;;3.16;44.02;94329.19;5003966;28;20038;-76
2023/03/30 00:36:38;;;;;;;5.90;2.72;;;;;;;3.01;44.60;94340.38;5004997;28;20655;-75
2023/03/30 00:39:05;;;;;;;4.63;2.78;;;;;;;2.86;45.56;94337.66;5005103;28;20037;-76
2023/03/30 00:41:34;;;;;;;10.30;3.30;;;;;;;2.59;46.45;94337.72;5004689;28;20496;-76
2023/03/30 00:44:03;;;;;;;6.30;3.95;;;;;;;2.62;46.59;94331.97;5004166;28;20088;-75
2023/03/30 00:46:30;;;;;;;5.13;2.67;;;;;;;2.56;47.01;94296.19;5004426;28;20033;-76
2023/03/30 00:49:02;;;;;;;4.00;2.53;;;;;;;2.71;46.73;94327.03;5002679;28;20530;-75
2023/03/30 00:51:28;;;;;;;5.15;2.90;;;;;;;2.86;46.46;94327.16;5003363;28;20034;-75
2023/03/30 00:53:59;;;;;;;4.72;2.85;;;;;;;2.79;46.40;94331.84;5003521;28;20049;-75
2023/03/30 00:56:29;;;;;;;7.75;3.53;;;;;;;2.59;46.61;94327.22;5004933;28;20038;-76
2023/03/30 00:58:54;;;;;;;3.30;2.40;;;;;;;2.80;46.56;94328.94;5004097;28;20109;-76
2023/03/30 01:01:27;;;;;;;3.65;2.75;;;;;;;2.82;46.29;94336.56;5008466;28;20522;-76
2023/03/30 01:03:55;;;;;;;2.95;2.33;;;;;;;2.88;46.38;94335.56;5004251;28;20057;-75
2023/03/30 01:06:25;;;;;;;5.55;3.13;;;;;;;2.80;46.93;94349.16;5005229;28;20042;-76
2023/03/30 01:08:54;;;;;;;6.38;3.17;;;;;;;2.82;46.32;94336.56;5004721;28;20061;-76
2023/03/30 01:11:20;;;;;;;6.40;3.08;;;;;;;2.70;45.43;94286.84;5003625;28;20440;-76
2023/03/30 01:13:50;;;;;;;3.63;2.40;;;;;;;2.84;45.41;94302.97;5004290;28;20120;-76
2023/03/30 01:16:34;;;;;;;3.65;2.58;;;;;;;3.07;45.78;94336.75;5003076;28;20558;-75
2023/03/30 01:19:20;;;;;;;2.58;2.35;;;;;;;3.14;45.63;94332.06;5006931;28;20084;-76
2023/03/30 01:21:57;;;;;;;3.38;2.78;;;;;;;3.15;45.37;94324.97;5004829;28;20330;-77
2023/03/30 01:24:52;;;;;;;5.72;2.47;;;;;;;3.20;45.07;94317.91;5005570;28;20536;-76
2023/03/30 01:27:51;;;;;;;3.75;2.47;;;;;;;3.34;44.49;94319.03;5012265;28;20259;-76
2023/03/30 01:30:31;;;;;;;2.80;2.60;;;;;;;3.46;44.02;94326.72;5004968;28;20037;-76
2023/03/30 01:33:41;;;;;;;6.18;2.03;;;;;;;3.61;43.33;94323.38;5012189;28;20060;-75
2023/03/30 01:36:30;;;;;;;4.03;2.47;;;;;;;3.42;43.14;94336.19;5002906;28;20029;-76
2023/03/30 01:39:02;;;;;;;4.18;3.03;;;;;;;3.30;43.55;94331.09;5004237;28;20845;-76
2023/03/30 01:41:59;;;;;;;6.15;3.10;;;;;;;3.48;43.62;94334.38;5005117;28;20033;-75
2023/03/30 01:44:24;;;;;;;3.22;2.60;;;;;;;3.62;43.11;94338.13;5002106;28;20597;-77
2023/03/30 01:46:56;;;;;;;3.05;2.22;;;;;;;3.47;43.78;94335.41;5002545;28;20061;-76
2023/03/30 01:49:39;;;;;;;4.63;2.72;;;;;;;3.45;44.15;94330.41;5004069;28;20052;-75
2023/03/30 01:52:12;;;;;;;2.88;2.20;;;;;;;3.33;44.06;94327.19;5004086;28;20041;-75
2023/03/30 01:55:04;;;;;;;3.30;2.65;;;;;;;3.02;44.79;94320.97;5004830;28;20058;-77
2023/03/30 01:57:41;;;;;;;2.65;2.30;;;;;;;2.99;45.12;94323.31;4999024;28;20380;-75
2023/03/30 02:00:12;;;;;;;4.13;2.55;;;;;;;2.81;45.55;94327.91;5007096;28;20033;-75
2023/03/30 02:02:42;;;;;;;3.80;2.65;;;;;;;2.74;45.78;94319.47;5001117;28;20045;-76
2023/03/30 02:05:09;;;;;;;4.43;2.58;;;;;;;2.92;45.33;94332.19;5004622;28;20025;-76
2023/03/30 02:07:38;;;;;;;3.85;3.00;;;;;;;3.04;45.83;94350.38;5001787;28;20029;-76
2023/03/30 02:10:08;;;;;;;4.03;3.53;;;;;;;2.98;46.38;94346.16;5003493;28;20076;-77
2023/03/30 02:12:35;;;;;;;5.68;2.42;;;;;;;2.87;46.37;94344.50;5005487;28;20037;-77
2023/03/30 02:15:06;;;;;;;4.57;2.80;;;;;;;2.84;46.59;94324.00;5004277;28;20034;-76
2023/03/30 02:17:32;;;;;;;5.18;4.68;;;;;;;2.96;46.74;94335.09;5003041;28;20055;-76
2023/03/30 02:19:58;;;;;;;3.72;2.70;;;;;;;2.99;46.78;94342.47;5004833;28;20057;-76
2023/03/30 02:22:26;;;;;;;6.40;2.80;;;;;;;3.07;46.42;94339.38;5005574;28;20132;-76
2023/03/30 02:24:57;;;;;;;3.42;2.67;;;;;;;3.08;46.84;94351.50;5001682;28;20046;-77
2023/03/30 02:27:23;;;;;;;4.40;2.70;;;;;;;2.89;46.81;94332.69;5003849;28;20038;-74
2023/03/30 02:29:49;;;;;;;4.18;2.78;;;;;;;2.74;47.11;94318.66;5002020;28;20060;-74
2023/03/30 02:32:32;;;;;;;5.40;3.33;;;;;;;2.65;47.37;94317.53;5007507;28;20480;-77
2023/03/30 02:35:22;;;;;;;4.90;2.83;;;;;;;3.07;46.93;94343.84;5004087;28;20909;-74
2023/03/30 02:37:54;;;;;;;4.22;2.85;;;;;;;3.28;46.76;94351.59;5005883;28;20577;-77
2023/03/30 02:40:22;;;;;;;5.25;2.83;;;;;;;3.25;47.11;94353.94;5003733;28;20065;-75
2023/03/30 02:43:14;;;;;;;2.78;2.38;;;;;;;3.25;47.12;94351.31;5008541;28;20038;-74
2023/03/30 02:46:08;;;;;;;3.95;2.65;;;;;;;3.01;47.89;94327.25;5007095;28;20034;-75
2023/03/30 02:48:42;;;;;;;5.13;2.28;;;;;;;3.09;49.29;94370.66;5005957;28;20405;-77
2023/03/30 02:51:43;;;;;;;4.30;2.80;;;;;;;3.14;49.37;94363.59;5005362;28;20479;-76
2023/03/30 02:54:45;;;;;;;4.93;4.45;;;;;;;3.08;49.43;94362.00;5004453;28;20091;-77
2023/03/30 02:57:13;;;;;;;4.38;2.60;;;;;;;3.18;49.08;94359.44;5008180;28;20033;-76
2023/03/30 02:59:53;;;;;;;7.40;2.70;;;;;;;3.28;48.66;94366.59;5008078;28;20088;-76
2023/03/30 03:02:26;;;;;;;7.03;3.00;;;;;;;3.28;49.10;94362.09;5004981;28;20038;-77
2023/03/30 03:04:53;;;;;;;5.90;2.75;;;;;;;3.56;48.46;94366.22;5015522;28;20152;-76
2023/03/30 03:07:20;;;;;;;4.43;2.78;;;;;;;3.77;48.23;94364.50;5003888;28;20062;-76
2023/03/30 03:09:46;;;;;;;6.30;2.88;;;;;;;3.49;48.57;94328.03;5005673;28;20127;-77
2023/03/30 03:12:12;;;;;;;4.15;3.60;;;;;;;3.76;48.99;94363.69;5005098;28;20068;-76
2023/03/30 03:14:38;;;;;;;4.28;2.75;;;;;;;3.56;50.07;94362.81;5006580;28;20026;-77
2023/03/30 03:17:04;;;;;;;3.97;3.25;;;;;;;3.56;50.08;94370.69;5006566;28;20025;-76
2023/03/30 03:19:30;;;;;;;7.72;4.15;;;;;;;3.47;50.30;94372.22;5008033;28;20496;-76
2023/03/30 03:21:55;;;;;;;4.20;3.38;;;;;;;3.32;50.62;94365.84;5005875;28;20042;-76
2023/03/30 03:24:20;;;;;;;3.83;3.50;;;;;;;3.42;50.24;94357.22;5005398;28;20045;-77
2023/03/30 03:26:46;;;;;;;3.95;3.10;;;;;;;3.46;50.26;94346.97;5004650;28;20597;-78
2023/03/30 03:29:12;;;;;;;4.20;3.28;;;;;;;3.69;49.87;94360.50;5006467;28;20136;-76
2023/03/30 03:31:37;;;;;;;4.50;3.92;;;;;;;3.78;49.91;94368.69;5002662;28;20030;-74
2023/03/30 03:34:03;;;;;;;6.45;3.45;;;;;;;3.46;50.58;94346.97;5006896;28;20465;-76
2023/03/30 03:36:29;;;;;;;4.47;3.28;;;;;;;3.36;51.38;94337.19;5005125;28;20555;-74
2023/03/30 03:38:55;;;;;;;3.42;3.15;;;;;;;3.19;51.83;94334.72;5006922;28;20026;-77
2023/03/30 03:41:20;;;;;;;5.05;4.55;;;;;;;3.48;51.54;94350.91;5008116;28;20053;-76
2023/03/30 03:43:46;;;;;;;4.88;3.40;;;;;;;3.79;51.17;94370.25;5006404;28;20060;-76
2023/03/30 03:46:11;;;;;;;6.72;3.67;;;;;;;3.75;51.20;94356.03;5004459;28;20034;-76
2023/03/30 03:48:38;;;;;;;3.63;3.15;;;;;;;3.68;51.20;94344.97;5007074;28;20495;-77
2023/03/30 03:51:04;;;;;;;3.92;3.20;;;;;;;3.74;51.25;94354.47;5012347;28;20521;-76
2023/03/30 03:53:29;;;;;;;4.47;3.67;;;;;;;3.74;51.00;94349.19;5006620;28;20045;-74
2023/03/30 03:55:55;;;;;;;3.38;3.08;;;;;;;3.63;51.35;94350.19;5007402;28;20030;-74
2023/03/30 03:58:21;;;;;;;5.03;3.72;;;;;;;3.66;51.77;94368.13;5004039;28;20591;-75
2023/03/30 04:00:47;;;;;;;5.95;3.35;;;;;;;3.69;51.21;94380.75;5005943;28;20301;-74
2023/03/30 04:03:12;;;;;;;5.85;3.28;;;;;;;3.64;51.29;94384.16;5006749;28;20029;-74
2023/03/30 04:05:38;;;;;;;6.03;3.42;;;;;;;3.73;51.29;94368.66;5005462;28;20464;-74
2023/03/30 04:08:04;;;;;;;5.93;3.70;;;;;;;3.85;50.52;94361.34;5006093;28;20042;-76
2023/03/30 04:10:30;;;;;;;5.68;2.70;;;;;;;3.70;50.55;94362.09;5006080;28;20030;-74
2023/03/30 04:12:56;;;;;;;3.03;2.28;;;;;;;3.79;50.30;94384.22;5002689;28;20095;-74
2023/03/30 04:15:23;;;;;;;2.60;2.38;;;;;;;3.78;50.47;94379.19;5004299;28;20158;-74
2023/03/30 04:17:56;;;;;;;4.38;2.58;;;;;;;3.58;51.20;94371.22;5003580;28;20574;-74
2023/03/30 04:20:22;;;;;;;7.53;3.00;;;;;;;3.67;51.01;94359.19;5003513;28;20062;-74
2023/03/30 04:22:48;;;;;;;3.30;2.85;;;;;;;3.91;51.09;94376.13;5008021;28;20022;-74
2023/03/30 04:25:14;;;;;;;4.95;2.92;;;;;;;4.02;50.41;94380.34;5007316;28;20500;-74
2023/03/30 04:27:44;;;;;;;5.00;3.72;;;;;;;4.18;50.44;94386.47;5003440;28;20446;-75
2023/03/30 04:30:10;;;;;;;4.45;2.95;;;;;;;4.19;50.48;94386.22;5006862;28;20876;-74
2023/03/30 04:32:40;;;;;;;3.95;2.85;;;;;;;3.96;50.89;94373.50;5011639;28;20493;-75
2023/03/30 04:35:09;;;;;;;3.65;2.63;;;;;;;4.16;50.54;94389.34;5003100;28;20017;-74
2023/03/30 04:37:36;;;;;;;3.40;2.90;;;;;;;3.99;50.76;94380.09;5006070;28;20558;-75
2023/03/30 04:40:08;;;;;;;7.25;4.95;;;;;;;3.89;51.22;94383.47;5002805;28;20030;-77
2023/03/30 04:42:36;;;;;;;4.25;2.60;;;;;;;3.91;50.97;94380.59;5012034;28;20033;-75
2023/03/30 04:45:09;;;;;;;5.18;2.58;;;;;;;3.90;51.02;94371.91;5003345;28;20546;-75
2023/03/30 04:47:34;;;;;;;2.80;2.38;;;;;;;3.81;50.75;94368.19;5012997;28;20034;-75
2023/03/30 04:50:00;;;;;;;4.80;2.80;;;;;;;3.79;50.88;94378.16;5002384;28;20040;-75
2023/03/30 04:52:26;;;;;;;4.25;3.40;;;;;;;3.70;51.24;94363.91;5007844;28;20480;-76
2023/03/30 04:54:52;;;;;;;7.75;3.28;;;;;;;3.56;50.91;94318.09;5003119;28;20061;-76
2023/03/30 04:57:18;;;;;;;4.20;2.58;;;;;;;3.81;51.19;94386.59;5003413;28;20258;-77
2023/03/30 04:59:43;;;;;;;3.03;2.72;;;;;;;3.83;50.84;94373.97;5005681;28;20178;-76
2023/03/30 05:02:10;;;;;;;4.22;2.35;;;;;;;3.99;50.91;94387.97;5002748;28;20026;-74
2023/03/30 05:04:36;;;;;;;6.32;2.38;;;;;;;3.95;50.61;94355.34;5004699;28;20029;-76
2023/03/30 05:07:03;;;;;;;5.75;3.10;;;;;;;3.94;51.40;94369.53;5003008;28;20038;-77
2023/03/30 05:09:28;;;;;;;4.93;3.03;;;;;;;4.04;51.29;94365.09;5006108;28;20136;-76
2023/03/30 05:11:54;;;;;;;4.22;3.03;;;;;;;3.96;51.80;94384.03;5003546;28;20604;-76
2023/03/30 05:14:19;;;;;;;7.00;3.03;;;;;;;4.13;51.91;94400.41;5004438;28;20100;-76
2023/03/30 05:16:45;;;;;;;5.88;3.80;;;;;;;4.04;52.13;94390.63;5003892;28;20033;-76
2023/03/30 05:19:11;;;;;;;7.32;3.40;;;;;;;4.18;51.66;94397.00;5006432;28;20499;-76
2023/03/30 05:21:36;;;;;;;7.90;3.47;;;;;;;4.04;51.35;94365.09;5005765;28;20111;-75
2023/03/30 05:24:02;;;;;;;6.68;3.70;;;;;;;4.33;50.80;94385.75;5004202;28;20056;-76
2023/03/30 05:26:27;;;;;;;4.15;2.75;;;;;;;4.21;50.52;94359.59;5003171;28;20088;-77
2023/03/30 05:28:53;;;;;;;5.90;3.95;;;;;;;4.28;50.26;94352.25;5003673;28;20032;-76
2023/03/30 05:31:19;;;;;;;5.65;2.63;;;;;;;4.59;49.89;94392.66;5002622;28;20045;-76
2023/03/30 05:33:45;;;;;;;3.33;2.85;;;;;;;4.55;50.22;94388.97;5005254;28;20103;-76
2023/03/30 05:36:11;;;;;;;10.07;3.65;;;;;;;4.62;50.46;94397.41;5004906;28;20542;-76
2023/03/30 05:38:36;;;;;;;8.27;4.38;;;;;;;4.74;50.03;94390.03;5002367;28;20037;-77
2023/03/30 05:41:03;;;;;;;6.30;3.95;;;;;;;4.86;49.64;94379.22;5005945;28;20567;-76
2023/03/30 05:43:29;;;;;;;6.75;3.85;;;;;;;4.68;49.81;94375.28;5003424;28;20056;-76
2023/03/30 05:45:55;;;;;;;4.63;3.63;;;;;;;4.88;49.10;94370.03;5006197;28;20146;-76
2023/03/30 05:48:21;;;;;;;7.57;4.10;;;;;;;4.98;49.35;94396.38;5003854;28;20488;-76
2023/03/30 05:50:47;;;;;;;7.18;3.75;;;;;;;4.79;49.86;94394.53;5007642;28;20058;-76
2023/03/30 05:53:12;;;;;;;6.50;4.25;;;;;;;4.62;50.02;94369.22;5001329;28;20036;-76
2023/03/30 05:55:38;;;;;;;12.60;5.75;;;;;;;4.85;49.73;94386.34;5005393;28;20025;-77
2023/03/30 05:58:03;;;;;;;7.35;5.18;;;;;;;5.00;49.40;94386.34;5002804;28;20045;-76
2023/03/30 06:00:32;;;;;;;9.60;4.80;;;;;;;5.26;48.85;94407.44;5005337;28;20072;-77
2023/03/30 06:02:58;;;;;;;10.90;4.47;;;;;;;5.21;48.94;94405.59;5010803;28;20523;-76
2023/03/30 06:05:24;;;;;;;8.60;4.88;;;;;;;4.83;49.38;94412.19;5002012;28;20038;-76
2023/03/30 06:07:49;;;;;;;12.32;5.25;;;;;;;4.71;49.65;94390.56;5005195;28;20527;-75
2023/03/30 06:10:15;;;;;;;7.30;4.43;;;;;;;5.04;49.01;94399.81;5003009;28;20041;-75
2023/03/30 06:12:40;;;;;;;7.25;5.10;;;;;;;5.06;48.94;94387.94;5003522;28;20038;-73
2023/03/30 06:15:07;;;;;;;7.45;4.68;;;;;;;4.98;49.24;94404.28;5004292;28;20488;-75
2023/03/30 06:17:35;;;;;;;8.43;5.85;;;;;;;5.10;49.57;94436.44;5007701;28;20196;-75
2023/03/30 06:20:01;;;;;;;16.10;7.32;;;;;;;4.47;51.43;94410.53;5007021;28;20495;-74
2023/03/30 06:22:27;;;;;;;13.98;7.10;;;;;;;4.38;52.94;94446.34;5011150;28;20112;-75
2023/03/30 06:24:52;;;;;;;9.13;6.70;;;;;;;4.21;53.42;94434.13;5006016;28;20816;-75
2023/03/30 06:27:17;;;;;;;13.90;7.47;;;;;;;4.09;54.15;94440.66;5008152;28;20038;-75
2023/03/30 06:29:44;;;;;;;13.90;7.28;;;;;;;4.30;53.36;94436.31;5005810;28;20053;-74
2023/03/30 06:32:09;;;;;;;14.48;7.85;;;;;;;4.81;51.92;94440.63;5008389;28;20025;-74
2023/03/30 06:34:34;;;;;;;12.15;7.95;;;;;;;4.92;51.70;94425.63;5008561;28;20022;-74
2023/03/30 06:37:00;;;;;;;10.75;7.78;;;;;;;5.29;51.15;94446.47;5007314;28;20034;-75
2023/03/30 06:39:25;;;;;;;13.57;7.63;;;;;;;5.34;51.23;94433.28;5004771;28;20045;-74
2023/03/30 06:41:51;;;;;;;12.45;7.05;;;;;;;5.47;50.99;94451.22;5008361;28;20377;-75
2023/03/30 06:44:16;;;;;;;12.55;7.13;;;;;;;4.67;52.60;94421.13;5007934;28;20064;-74
2023/03/30 06:46:42;;;;;;;15.85;7.57;;;;;;;4.88;52.88;94449.09;5006794;28;20498;-74
2023/03/30 06:49:09;;;;;;;10.98;6.90;;;;;;;5.12;52.49;94442.25;5007183;28;20053;-75
2023/03/30 06:51:35;;;;;;;14.50;7.55;;;;;;;5.36;51.56;94407.44;5014333;28;20127;-75
2023/03/30 06:54:01;;;;;;;15.10;7.65;;;;;;;5.79;50.94;94443.78;5006349;28;20121;-75
2023/03/30 06:56:26;;;;;;;13.77;7.25;;;;;;;6.10;49.97;94462.19;5005352;28;20699;-75
2023/03/30 06:58:52;;;;;;;24.75;7.97;;;;;;;5.60;51.23;94448.03;5005630;28;20116;-75
2023/03/30 07:01:18;;;;;;;11.38;8.18;;;;;;;5.67;50.92;94461.75;5021650;28;20484;-77
2023/03/30 07:03:43;;;;;;;11.55;7.70;;;;;;;6.17;50.16;94470.63;5005235;28;20033;-74
2023/03/30 07:06:09;;;;;;;12.02;8.35;;;;;;;5.78;50.74;94436.91;5005334;28;20050;-76
2023/03/30 07:08:35;;;;;;;20.08;8.82;;;;;;;5.26;52.61;94454.91;4982601;28;20494;-75
2023/03/30 07:11:05;;;;;;;15.07;9.00;;;;;;;4.99;53.63;94463.84;4988506;28;20041;-74
2023/03/30 07:13:32;;;;;;;20.98;9.90;;;;;;;4.93;53.96;94438.56;4986448;28;20026;-77
2023/03/30 07:15:57;;;;;;;21.25;9.50;;;;;;;5.08;53.95;94462.31;4988057;28;20108;-77
2023/03/30 07:18:23;;;;;;;15.73;9.75;;;;;;;5.46;52.35;94436.44;4987417;28;20505;-77
2023/03/30 07:20:50;;;;;;;22.55;9.43;;;;;;;5.34;53.05;94451.75;4986989;28;20069;-76
2023/03/30 07:23:16;;;;;;;12.93;7.95;;;;;;;5.31;52.60;94458.34;4986394;28;20584;-76
2023/03/30 07:25:43;;;;;;;12.38;9.13;;;;;;;4.83;54.10;94480.72;4986854;28;20029;-74
2023/03/30 07:28:09;;;;;;;17.00;8.57;;;;;;;5.19;53.24;94459.69;4985538;28;20045;-76
2023/03/30 07:30:35;;;;;;;10.35;6.85;;;;;;;5.28;53.25;94466.00;4985635;28;20401;-77
2023/03/30 07:33:00;;;;;;;13.52;7.72;;;;;;;4.41;54.47;94437.91;4984706;28;20497;-76
2023/03/30 07:35:26;;;;;;;17.23;8.68;;;;;;;4.57;55.12;94479.84;4986809;28;20034;-74
2023/03/30 07:37:51;;;;;;;17.33;8.18;;;;;;;5.16;54.32;94481.28;4987192;28;20042;-75
2023/03/30 07:40:18;;;;;;;14.40;8.48;;;;;;;5.48;53.10;94463.38;4984400;28;20478;-77
2023/03/30 07:42:43;;;;;;;13.00;7.07;;;;;;;5.89;51.58;94472.78;4987226;28;20578;-75
2023/03/30 07:45:09;;;;;;;12.45;7.53;;;;;;;5.83;51.45;94446.66;4987419;28;20038;-77
2023/03/30 07:47:36;;;;;;;13.38;7.80;;;;;;;5.45;51.80;94427.72;4983927;28;20366;-76
2023/03/30 07:50:01;;;;;;;13.30;8.82;;;;;;;5.42;52.19;94443.31;4986085;28;20624;-74
2023/03/30 07:52:27;;;;;;;17.50;8.48;;;;;;;5.48;52.45;94463.38;4988667;28;20600;-77
2023/03/30 07:54:53;;;;;;;16.25;8.50;;;;;;;5.29;52.98;94443.81;4986280;28;20041;-78
2023/03/30 07:57:19;;;;;;;15.00;8.13;;;;;;;5.27;52.74;94461.78;4984500;28;20061;-75
2023/03/30 07:59:45;;;;;;;20.45;8.68;;;;;;;4.97;54.02;94446.72;4985987;28;20042;-74
2023/03/30 08:02:13;;;;;;;12.23;8.63;;;;;;;4.93;54.11;94467.56;4986042;28;20045;-74
2023/03/30 08:04:38;;;;;;;17.08;8.38;;;;;;;5.20;53.74;94466.50;4987167;28;20392;-74
2023/03/30 08:07:04;;;;;;;17.35;8.50;;;;;;;5.67;53.19;94458.31;4984183;28;20044;-75
2023/03/30 08:09:29;;;;;;;17.33;9.00;;;;;;;5.39;53.02;94459.66;4988766;28;20050;-74
2023/03/30 08:11:56;;;;;;;12.63;8.05;;;;;;;5.82;52.22;94461.72;4985749;28;20040;-75
2023/03/30 08:14:22;;;;;;;14.68;9.05;;;;;;;5.26;53.32;94450.44;4987450;28;20034;-74
2023/03/30 08:16:48;;;;;;;17.00;8.80;;;;;;;5.29;53.35;94470.19;4985707;28;20033;-74
2023/03/30 08:19:13;;;;;;;15.75;7.78;;;;;;;5.38;53.69;94458.09;4984760;28;20034;-75
2023/03/30 08:21:39;;;;;;;15.98;9.07;;;;;;;6.04;52.24;94450.06;4986505;28;20087;-74
2023/03/30 08:24:04;;;;;;;13.63;8.30;;;;;;;6.34;50.74;94444.69;4987798;28;20045;-75
2023/03/30 08:26:30;;;;;;;21.58;9.07;;;;;;;6.34;51.20;94449.97;4983199;28;20600;-74
2023/03/30 08:28:56;;;;;;;15.95;8.63;;;;;;;6.13;51.24;94459.00;4986001;28;20030;-75
2023/03/30 08:31:21;;;;;;;21.60;8.70;;;;;;;6.36;50.59;94446.00;4985108;28;20449;-74
2023/03/30 08:33:48;;;;;;;14.93;9.93;;;;;;;6.42;50.56;94452.03;4985170;28;20076;-75
2023/03/30 08:36:14;;;;;;;10.52;8.35;;;;;;;6.21;50.52;94447.94;4984982;28;20102;-75
2023/03/30 08:38:40;;;;;;;15.30;8.57;;;;;;;6.60;49.63;94432.94;4983527;28;20401;-76
2023/03/30 08:41:53;;;;;;;15.90;9.18;;;;;;;7.25;48.32;94441.50;5001208;28;21040;-75
2023/03/30 08:44:28;;;;;;;14.35;8.25;;;;;;;7.18;48.20;94454.25;4984350;28;20081;-75
2023/03/30 08:46:53;;;;;;;12.10;8.43;;;;;;;6.81;48.23;94418.53;4988971;28;20029;-75
2023/03/30 08:49:20;;;;;;;12.05;8.23;;;;;;;7.04;47.56;94440.88;4985347;28;20039;-75
2023/03/30 08:51:49;;;;;;;15.77;8.40;;;;;;;7.58;47.24;94455.81;4986389;28;20065;-75
2023/03/30 08:54:18;;;;;;;15.27;9.55;;;;;;;7.54;47.47;94447.59;4984433;28;20041;-75
2023/03/30 08:56:52;;;;;;;30.05;9.82;;;;;;;6.95;48.41;94449.63;4986840;28;20088;-74
2023/03/30 08:59:33;;;;;;;15.70;9.73;;;;;;;7.36;47.89;94448.28;4985722;28;20488;-75
2023/03/30 09:02:13;;;;;;;13.90;9.20;;;;;;;7.10;48.12;94442.41;4986842;28;20292;-77
2023/03/30 09:05:05;;;;;;;18.33;10.25;;;;;;;7.06;47.92;94440.59;4985256;28;20030;-77
2023/03/30 09:07:50;;;;;;;22.40;9.15;;;;;;;7.13;47.88;94446.38;5006195;28;20101;-76
2023/03/30 09:10:18;;;;;;;15.45;8.93;;;;;;;6.79;48.67;94410.09;4991127;28;20049;-76
2023/03/30 09:12:53;;;;;;;15.90;8.30;;;;;;;7.25;46.80;94415.03;5010781;28;20041;-77
2023/03/30 09:15:21;;;;;;;13.32;7.70;;;;;;;7.22;47.00;94426.19;5004091;28;20051;-77
2023/03/30 09:17:59;;;;;;;14.32;8.05;;;;;;;6.81;46.87;94407.97;5004663;28;20222;-76
2023/03/30 09:20:28;;;;;;;16.27;8.23;;;;;;;6.70;47.86;94405.66;5004409;28;20040;-76
2023/03/30 09:22:57;;;;;;;14.35;7.60;;;;;;;6.64;48.34;94396.97;5003147;28;20085;-77
2023/03/30 09:25:44;;;;;;;7.82;4.50;;;;;;;7.01;45.91;94420.25;5005181;28;20488;-76
2023/03/30 09:28:31;;;;;;;8.80;4.43;;;;;;;7.64;44.90;94421.03;5001655;28;20377;-76
2023/03/30 09:31:07;;;;;;;4.82;2.33;;;;;;;8.04;42.02;94403.97;5004395;28;20050;-77
2023/03/30 09:34:02;;;;;;;3.42;2.17;;;;;;;8.02;41.15;94411.41;5003847;28;20203;-76
2023/03/30 09:37:03;;;;;;;8.45;3.00;;;;;;;8.01;41.00;94388.66;5003863;28;20397;-78
2023/03/30 09:39:30;;;;;;;3.58;2.47;;;;;;;8.06;40.92;94379.88;5004298;28;20042;-76
2023/03/30 09:42:34;;;;;;;9.73;3.00;;;;;;;8.21;41.03;94398.22;5002831;28;20113;-76
2023/03/30 09:45:29;;;;;;;6.65;2.38;;;;;;;8.42;41.37;94373.03;5004246;28;20029;-77
2023/03/30 09:47:55;;;;;;;9.00;3.15;;;;;;;8.55;40.96;94384.81;4999265;28;20037;-76
2023/03/30 09:50:27;;;;;;;10.43;3.08;;;;;;;8.87;40.15;94384.88;5007871;28;20034;-77
2023/03/30 09:53:02;;;;;;;8.32;3.30;;;;;;;8.86;40.22;94366.56;5006255;28;20484;-76
2023/03/30 09:55:27;;;;;;;3.65;2.67;;;;;;;9.05;40.12;94383.25;5005965;28;20041;-76
2023/03/30 09:57:54;;;;;;;5.15;2.22;;;;;;;8.75;40.27;94379.22;5005804;28;20205;-76
2023/03/30 10:00:31;;;;;;;6.85;2.65;;;;;;;8.48;40.06;94318.88;5009334;28;20055;-76
2023/03/30 10:03:03;;;;;;;5.43;3.13;;;;;;;8.72;40.28;94376.34;5010003;28;20030;-76
2023/03/30 10:05:30;;;;;;;3.75;2.25;;;;;;;8.47;40.45;94353.63;5006823;28;20034;-76
2023/03/30 10:07:58;;;;;;;6.85;2.55;;;;;;;8.98;40.71;94372.25;5006050;28;20438;-76
2023/03/30 10:10:31;;;;;;;10.07;2.92;;;;;;;9.15;40.96;94364.56;5006402;28;20679;-76
2023/03/30 10:13:15;;;;;;;5.50;2.30;;;;;;;9.23;39.71;94355.94;5009692;28;20049;-76
2023/03/30 10:15:44;;;;;;;4.63;2.50;;;;;;;9.12;38.94;94354.53;5005007;28;20475;-76
2023/03/30 10:18:27;;;;;;;6.07;2.42;;;;;;;9.39;38.70;94367.88;5007155;28;20057;-76
2023/03/30 10:21:01;;;;;;;3.63;2.15;;;;;;;9.50;38.96;94354.41;5001260;28;20092;-76
2023/03/30 10:23:33;;;;;;;5.88;2.80;;;;;;;9.34;39.04;94352.03;4987212;28;20066;-76
2023/03/30 10:26:02;;;;;;;7.40;2.75;;;;;;;9.26;38.81;94343.94;4990833;28;20124;-76
2023/03/30 10:28:32;;;;;;;6.65;2.47;;;;;;;9.33;38.68;94339.84;4987704;28;20034;-76
2023/03/30 10:31:02;;;;;;;3.47;2.30;;;;;;;9.43;39.18;94331.72;4986269;28;20512;-77
2023/03/30 10:33:29;;;;;;;3.85;2.80;;;;;;;9.54;38.07;94342.91;4993143;28;20034;-77
2023/03/30 10:35:59;;;;;;;7.03;2.97;;;;;;;9.91;38.72;94344.63;4986883;28;20135;-77
2023/03/30 10:38:31;;;;;;;3.53;2.30;;;;;;;10.05;38.58;94334.78;4987345;28;20041;-76
2023/03/30 10:41:06;;;;;;;3.90;2.45;;;;;;;10.38;38.53;94346.09;4987771;28;20678;-77
2023/03/30 10:43:33;;;;;;;4.90;2.38;;;;;;;10.31;37.92;94338.50;5006399;28;20055;-76
2023/03/30 10:46:14;;;;;;;3.80;2.42;;;;;;;10.45;37.78;94332.38;5006781;28;20034;-76
2023/03/30 10:48:54;;;;;;;2.80;2.40;;;;;;;10.20;37.86;94342.44;5008147;28;20044;-76
2023/03/30 10:51:53;;;;;;;2.55;2.10;;;;;;;10.10;37.20;94339.19;5007490;28;20121;-77
2023/03/30 10:54:32;;;;;;;2.72;2.25;;;;;;;10.23;37.09;94331.19;5005864;28;20107;-76
2023/03/30 10:57:15;;;;;;;4.40;2.50;;;;;;;10.38;37.85;94338.09;5013363;28;20045;-76
2023/03/30 10:59:53;;;;;;;4.47;2.97;;;;;;;10.38;37.06;94332.00;5007574;28;20308;-77
2023/03/30 11:02:47;;;;;;;2.67;2.40;;;;;;;10.01;37.51;94327.69;5015192;28;20288;-76
2023/03/30 11:05:15;;;;;;;5.18;3.17;;;;;;;10.11;38.11;94330.16;5008339;28;20049;-78
2023/03/30 11:07:54;;;;;;;5.38;2.58;;;;;;;10.25;37.13;94315.75;5007505;28;20092;-76
2023/03/30 11:10:30;;;;;;;6.55;3.50;;;;;;;10.15;37.42;94299.22;5007173;28;20072;-77
2023/03/30 11:13:34;;;;;;;3.28;2.30;;;;;;;10.21;37.04;94306.03;5007507;28;20121;-76
2023/03/30 11:16:12;;;;;;;4.40;2.40;;;;;;;10.42;37.22;94301.06;5005341;28;20040;-76
2023/03/30 11:19:02;;;;;;;5.85;2.25;;;;;;;10.20;37.04;94289.28;5008524;28;20682;-76
2023/03/30 11:21:28;;;;;;;3.38;2.33;;;;;;;10.14;36.99;94295.78;5004919;28;20465;-76
2023/03/30 11:24:33;;;;;;;4.05;2.25;;;;;;;10.08;37.84;94296.19;5006632;28;20056;-76
2023/03/30 11:27:12;;;;;;;3.00;2.13;;;;;;;10.25;36.93;94270.56;4998413;28;20516;-77
2023/03/30 11:29:47;;;;;;;3.60;2.33;;;;;;;10.27;36.59;94281.66;5007283;28;20846;-76
2023/03/30 11:32:25;;;;;;;3.05;2.30;;;;;;;10.50;37.29;94289.72;5006088;28;20153;-77
2023/03/30 11:35:45;;;;;;;3.30;2.20;;;;;;;10.62;35.90;94276.66;5005478;28;20605;-78
2023/03/30 11:38:13;;;;;;;4.15;2.10;;;;;;;10.72;36.27;94269.25;5004962;28;20042;-76
2023/03/30 11:41:16;;;;;;;5.07;2.30;;;;;;;10.82;35.91;94272.75;5007127;28;20445;-76
2023/03/30 11:43:42;;;;;;;4.68;1.90;;;;;;;10.95;35.83;94271.91;4987100;28;20134;-77
2023/03/30 11:46:22;;;;;;;3.25;1.73;;;;;;;10.79;34.63;94268.81;4982379;28;20066;-77
2023/03/30 11:49:06;;;;;;;6.05;2.13;;;;;;;10.97;34.90;94269.72;5002413;28;20053;-76
2023/03/30 11:51:52;;;;;;;2.72;2.05;;;;;;;11.01;34.17;94260.81;5004925;28;20132;-77
2023/03/30 11:54:45;;;;;;;6.38;1.98;;;;;;;10.72;34.85;94253.28;5004112;28;20041;-76
2023/03/30 11:57:22;;;;;;;4.38;1.95;;;;;;;10.81;35.07;94266.63;5008134;28;20121;-76
2023/03/30 12:00:25;;;;;;;4.13;2.08;;;;;;;10.95;34.41;94251.41;5006341;28;20045;-78